Time;durP1;ratioP1;P1;durP2;ratioP2;P2;SDS_P1;SDS_P2;PMS_P1;PMS_P2;Temp;Humidity;BMP_temperature;BMP_pressure;BME280_temperature;BME280_humidity;BME280_pressure;Samples;Min_cycle;Max_cycle;Signal;HPM_P1;HPM_P2
2021/12/08 00:00:28;;;;;;;49.67;26.03;;;;;;;0.59;70.44;99912.66;6201473;22;97093;-81
2021/12/08 00:02:54;;;;;;;44.93;24.67;;;;;;;0.45;70.34;99908.31;6176519;22;99908;-80
2021/12/08 00:05:21;;;;;;;49.00;26.20;;;;;;;0.45;70.51;99900.59;6177156;22;96537;-80
2021/12/08 00:07:47;;;;;;;44.67;25.73;;;;;;;0.55;70.29;99905.75;6177411;22;96838;-80
2021/12/08 00:15:38;;;;;;;45.38;23.85;;;;;;;0.52;70.33;99898.00;6230587;22;96992;-81
2021/12/08 00:18:10;;;;;;;46.00;24.07;;;;;;;0.44;70.32;99898.88;6227779;22;96937;-80
2021/12/08 00:20:37;;;;;;;53.27;26.17;;;;;;;0.52;70.24;99896.28;6203192;22;99968;-80
2021/12/08 00:23:05;;;;;;;46.17;23.67;;;;;;;0.54;70.57;99899.72;6203620;22;98146;-81
2021/12/08 00:25:30;;;;;;;44.07;24.47;;;;;;;0.58;70.03;99885.06;6204063;22;96916;-80
2021/12/08 00:27:57;;;;;;;45.07;23.53;;;;;;;0.56;70.39;99898.00;6203710;22;97065;-80
2021/12/08 00:30:23;;;;;;;42.57;22.60;;;;;;;0.65;69.81;99902.31;6177082;22;99650;-80
2021/12/08 00:32:51;;;;;;;46.87;22.77;;;;;;;0.66;69.68;99891.09;6177793;22;99250;-80
2021/12/08 00:35:16;;;;;;;45.47;23.17;;;;;;;0.68;69.67;99886.81;6203338;22;96568;-80
2021/12/08 00:37:42;;;;;;;45.93;23.40;;;;;;;0.68;69.05;99879.06;6202449;22;96775;-80
2021/12/08 00:40:12;;;;;;;43.57;22.73;;;;;;;0.65;69.68;99876.47;6176690;22;100069;-80
2021/12/08 00:42:38;;;;;;;47.37;24.93;;;;;;;0.63;68.97;99885.94;6187472;22;100243;-81
2021/12/08 00:45:06;;;;;;;45.07;25.07;;;;;;;0.66;69.16;99883.34;6217573;22;96532;-80
2021/12/08 00:47:31;;;;;;;48.33;25.20;;;;;;;0.71;69.29;99880.78;6214970;22;96622;-80
2021/12/08 00:49:57;;;;;;;50.67;25.10;;;;;;;0.62;69.32;99887.66;6215327;22;97216;-81
2021/12/08 00:52:28;;;;;;;58.40;26.57;;;;;;;0.64;69.04;99887.66;6192235;22;99143;-81
2021/12/08 00:54:54;;;;;;;49.40;26.27;;;;;;;0.56;69.31;99890.25;6218394;22;96479;-80
2021/12/08 00:57:19;;;;;;;58.57;28.47;;;;;;;0.65;69.23;99887.66;6212331;22;96471;-80
2021/12/08 00:59:45;;;;;;;55.20;27.23;;;;;;;0.63;69.20;99880.78;6187835;22;100537;-81
2021/12/08 01:02:11;;;;;;;61.40;29.27;;;;;;;0.66;69.10;99878.19;6216156;22;100236;-80
2021/12/08 01:04:36;;;;;;;62.33;29.30;;;;;;;0.65;69.23;99892.84;6207699;22;96525;-80
2021/12/08 01:07:03;;;;;;;66.83;30.30;;;;;;;0.73;69.44;99881.63;6232247;22;96506;-80
2021/12/08 01:09:29;;;;;;;69.13;31.90;;;;;;;0.64;69.17;99887.66;6176833;22;99993;-80
2021/12/08 01:11:57;;;;;;;64.70;30.83;;;;;;;0.59;69.20;99887.66;6206642;22;101510;-80
2021/12/08 01:14:23;;;;;;;72.50;31.53;;;;;;;0.58;68.93;99890.25;6206179;22;96485;-80
2021/12/08 01:16:51;;;;;;;69.77;32.17;;;;;;;0.59;69.41;99879.91;6204148;22;96545;-80
2021/12/08 01:19:17;;;;;;;68.07;31.73;;;;;;;0.57;69.14;99885.94;6204912;22;96708;-80
2021/12/08 01:21:43;;;;;;;66.23;31.93;;;;;;;0.59;69.62;99882.50;6179963;22;100414;-80
2021/12/08 01:24:09;;;;;;;65.17;31.07;;;;;;;0.57;69.63;99888.53;6233789;22;97097;-80
2021/12/08 01:26:34;;;;;;;61.70;29.03;;;;;;;0.56;69.42;99879.94;6208993;22;97710;-80
2021/12/08 01:29:00;;;;;;;62.53;29.73;;;;;;;0.61;69.85;99875.63;6189995;22;99226;-81
2021/12/08 01:31:26;;;;;;;60.97;28.93;;;;;;;0.67;69.28;99883.38;6188023;22;99096;-80
2021/12/08 01:33:51;;;;;;;57.63;28.53;;;;;;;0.66;69.25;99884.22;6213203;22;96453;-80
2021/12/08 01:36:17;;;;;;;61.03;30.07;;;;;;;0.71;69.11;99871.31;6185091;22;96958;-80
2021/12/08 01:38:44;;;;;;;56.17;27.50;;;;;;;0.71;69.20;99865.28;6215061;22;100559;-81
2021/12/08 01:41:09;;;;;;;58.63;29.90;;;;;;;0.70;69.30;99860.94;6188582;22;99176;-81
2021/12/08 01:46:28;;;;;;;61.65;29.80;;;;;;;0.72;69.24;99854.06;6187477;22;96561;-81
2021/12/08 01:48:54;;;;;;;57.97;28.17;;;;;;;0.74;69.31;99854.94;6201374;22;96871;-80
2021/12/08 01:51:20;;;;;;;58.53;29.10;;;;;;;0.76;69.37;99842.88;6202585;22;99196;-80
2021/12/08 01:53:49;;;;;;;54.50;27.67;;;;;;;0.76;69.55;99854.06;6200824;22;97053;-80
2021/12/08 01:56:15;;;;;;;50.43;26.03;;;;;;;0.69;69.73;99847.19;6202683;22;96932;-80
2021/12/08 01:58:40;;;;;;;56.53;27.73;;;;;;;0.70;69.79;99838.59;6174808;22;101977;-80
2021/12/08 02:01:09;;;;;;;55.37;27.47;;;;;;;0.76;69.80;99841.16;6202483;22;96900;-80
2021/12/08 02:03:36;;;;;;;57.50;28.57;;;;;;;0.77;69.11;99829.09;6229419;22;96492;-80
2021/12/08 02:06:03;;;;;;;56.50;28.13;;;;;;;0.67;70.02;99844.63;6179070;22;96982;-80
2021/12/08 02:08:29;;;;;;;55.30;28.07;;;;;;;0.65;70.22;99833.41;6177800;22;99255;-80
2021/12/08 02:10:55;;;;;;;52.13;26.03;;;;;;;0.62;70.37;99827.41;6204489;22;97605;-80
2021/12/08 02:13:21;;;;;;;49.37;25.90;;;;;;;0.64;70.06;99820.47;6179209;22;96928;-80
2021/12/08 02:15:48;;;;;;;54.23;26.40;;;;;;;0.63;69.85;99817.03;6206825;22;96779;-80
2021/12/08 02:18:15;;;;;;;57.23;28.40;;;;;;;0.58;70.44;99821.38;6211598;22;100358;-80
2021/12/08 02:20:44;;;;;;;56.60;29.37;;;;;;;0.58;69.85;99810.16;6188666;22;99704;-81
2021/12/08 02:23:10;;;;;;;55.63;28.37;;;;;;;0.57;70.14;99814.47;6241606;22;96489;-81
2021/12/08 02:25:35;;;;;;;60.23;28.20;;;;;;;0.56;70.35;99804.16;6179001;22;97193;-80
2021/12/08 02:28:04;;;;;;;62.10;28.93;;;;;;;0.60;69.68;99808.44;6201830;22;99984;-80
2021/12/08 02:30:51;;;;;;;60.00;28.33;;;;;;;0.59;70.49;99797.25;6201316;22;100283;-80
2021/12/08 02:49:29;;;;;;;67.17;30.43;;;;;;;0.63;70.56;99767.97;6225926;22;96937;-80
2021/12/08 02:51:55;;;;;;;65.53;29.33;;;;;;;0.60;70.67;99775.72;6200984;22;100491;-81
2021/12/08 02:54:21;;;;;;;59.50;30.30;;;;;;;0.65;70.83;99765.38;6228881;22;96635;-80
2021/12/08 02:56:47;;;;;;;65.13;32.60;;;;;;;0.67;70.70;99769.69;6202525;22;97046;-81
2021/12/08 02:59:13;;;;;;;66.40;32.90;;;;;;;0.58;70.59;99746.47;6201353;22;99835;-80
2021/12/08 03:01:39;;;;;;;58.23;29.23;;;;;;;0.61;71.31;99758.50;6199767;22;100460;-80
2021/12/08 03:04:05;;;;;;;61.37;29.60;;;;;;;0.62;70.67;99758.50;6175415;22;96801;-80
2021/12/08 03:06:32;;;;;;;58.87;29.37;;;;;;;0.65;71.19;99750.75;6200567;22;96811;-80
2021/12/08 03:08:58;;;;;;;53.60;28.10;;;;;;;0.62;70.70;99750.75;6226777;22;100321;-80
2021/12/08 03:11:24;;;;;;;57.67;29.87;;;;;;;0.66;71.27;99755.03;6226649;22;97593;-79
2021/12/08 03:14:01;;;;;;;57.90;29.23;;;;;;;0.60;71.29;99744.72;6202291;22;96641;-80
2021/12/08 03:16:27;;;;;;;60.57;27.87;;;;;;;0.57;70.87;99741.28;6228746;22;96465;-80
2021/12/08 03:18:53;;;;;;;56.50;27.67;;;;;;;0.64;71.31;99737.81;6202112;22;96851;-80
2021/12/08 03:21:21;;;;;;;64.50;30.67;;;;;;;0.68;71.33;99735.22;6175209;22;99292;-80
2021/12/08 03:23:54;;;;;;;62.70;30.70;;;;;;;0.54;72.23;99731.84;6202862;22;96608;-80
2021/12/08 03:26:27;;;;;;;58.73;27.93;;;;;;;0.55;71.63;99715.47;6203683;22;96906;-80
2021/12/08 03:29:01;;;;;;;61.80;29.77;;;;;;;0.52;71.66;99706.88;6202620;22;97940;-80
2021/12/08 03:31:32;;;;;;;57.83;30.20;;;;;;;0.49;71.71;99702.56;6226290;22;97884;-80
2021/12/08 03:33:58;;;;;;;55.13;28.20;;;;;;;0.48;71.92;99702.59;6178480;22;96828;-80
2021/12/08 03:36:24;;;;;;;64.97;30.50;;;;;;;0.52;71.24;99705.13;6225538;22;97348;-80
2021/12/08 03:38:49;;;;;;;62.50;29.57;;;;;;;0.49;71.03;99684.50;6201228;22;99904;-80
2021/12/08 03:41:15;;;;;;;62.23;29.87;;;;;;;0.43;71.12;99692.25;6200624;22;99326;-80
2021/12/08 03:43:41;;;;;;;61.27;28.73;;;;;;;0.41;70.63;99683.69;6202807;22;96805;-80
2021/12/08 03:46:11;;;;;;;66.40;31.30;;;;;;;0.36;71.15;99694.00;6180809;22;96421;-81
2021/12/08 03:48:47;;;;;;;62.37;29.90;;;;;;;0.38;70.86;99700.03;6202108;22;100372;-81
2021/12/08 03:51:14;;;;;;;66.33;31.53;;;;;;;0.43;70.78;99681.94;6203133;22;99666;-81
2021/12/08 03:53:40;;;;;;;63.40;28.90;;;;;;;0.40;70.87;99682.78;6176240;22;96580;-81
2021/12/08 03:56:06;;;;;;;63.97;29.60;;;;;;;0.37;70.47;99682.81;6203788;22;97037;-81
2021/12/08 03:58:32;;;;;;;68.53;30.97;;;;;;;0.44;70.82;99686.25;6227967;22;96531;-81
2021/12/08 04:00:58;;;;;;;70.73;31.83;;;;;;;0.45;70.93;99680.22;6203807;22;100315;-81
2021/12/08 04:03:26;;;;;;;69.83;32.27;;;;;;;0.44;70.89;99679.34;6178198;22;96524;-81
2021/12/08 04:05:55;;;;;;;72.30;32.93;;;;;;;0.41;70.80;99673.34;6204344;22;96541;-81
2021/12/08 04:08:41;;;;;;;66.63;30.60;;;;;;;0.36;71.39;99673.34;6229070;22;96981;-81
2021/12/08 04:11:09;;;;;;;69.67;33.67;;;;;;;0.49;70.75;99681.91;6181291;22;101351;-81
2021/12/08 04:13:48;;;;;;;64.43;30.40;;;;;;;0.41;70.77;99665.59;6177104;22;96601;-81
2021/12/08 04:16:16;;;;;;;65.90;30.83;;;;;;;0.39;70.73;99663.00;6177657;22;96661;-81
2021/12/08 04:18:42;;;;;;;64.00;28.83;;;;;;;0.35;70.45;99666.47;6175672;22;99173;-81
2021/12/08 04:21:09;;;;;;;67.33;30.87;;;;;;;0.33;70.87;99660.44;6177636;22;99644;-81
2021/12/08 04:23:36;;;;;;;61.90;28.80;;;;;;;0.41;71.00;99666.47;6203506;22;96501;-81
2021/12/08 04:26:09;;;;;;;63.60;29.30;;;;;;;0.38;71.11;99645.81;6203180;22;96846;-81
2021/12/08 04:28:35;;;;;;;59.13;27.53;;;;;;;0.32;71.02;99661.31;6228693;22;96670;-81
2021/12/08 04:31:06;;;;;;;65.50;28.80;;;;;;;0.40;70.71;99656.13;6203538;22;97073;-81
2021/12/08 04:33:33;;;;;;;57.47;26.90;;;;;;;0.40;71.07;99649.22;6204781;22;96985;-81
2021/12/08 04:36:00;;;;;;;61.97;28.23;;;;;;;0.39;70.66;99659.56;6177650;22;97699;-81
2021/12/08 04:38:33;;;;;;;65.13;28.93;;;;;;;0.38;71.17;99656.13;6203027;22;101314;-81
2021/12/08 04:41:07;;;;;;;67.33;30.10;;;;;;;0.48;70.87;99649.22;6206383;22;99938;-81
2021/12/08 04:43:45;;;;;;;71.20;31.40;;;;;;;0.57;70.42;99653.47;6204993;22;97228;-81
2021/12/08 04:46:28;;;;;;;65.47;30.10;;;;;;;0.51;70.41;99656.94;6181953;22;96802;-81
2021/12/08 04:51:50;;;;;;;65.77;29.80;;;;;;;0.44;71.01;99644.94;6204120;22;99647;-81
2021/12/08 05:03:24;;;;;;;69.63;33.37;;;;;;;0.52;70.92;99645.72;6208567;22;100121;-81
2021/12/08 05:08:42;;;;;;;70.47;30.20;;;;;;;0.48;71.10;99662.13;6208678;22;96454;-81
2021/12/08 05:11:13;;;;;;;69.50;27.50;;;;;;;0.46;70.49;99663.84;6181799;22;97833;-82
2021/12/08 05:13:39;;;;;;;71.17;29.93;;;;;;;0.49;70.69;99653.50;6204383;22;99844;-81
2021/12/08 05:16:05;;;;;;;60.73;29.37;;;;;;;0.38;70.84;99663.88;6231341;22;96667;-81
2021/12/08 05:18:35;;;;;;;70.63;28.10;;;;;;;0.41;70.74;99674.19;6176622;22;96955;-81
2021/12/08 05:21:18;;;;;;;76.13;30.50;;;;;;;0.42;70.89;99675.06;6228975;22;96914;-81
2021/12/08 05:23:55;;;;;;;65.20;29.83;;;;;;;0.47;71.17;99672.44;6229284;22;98409;-81
2021/12/08 05:26:24;;;;;;;67.40;28.47;;;;;;;0.49;71.35;99681.91;6179299;22;96846;-81
2021/12/08 05:28:52;;;;;;;68.97;30.60;;;;;;;0.56;70.79;99668.13;6229991;22;96484;-81
2021/12/08 05:31:22;;;;;;;66.37;28.93;;;;;;;0.54;71.26;99658.66;6179060;22;100304;-81
2021/12/08 05:33:49;;;;;;;69.20;29.33;;;;;;;0.43;71.20;99659.53;6204291;22;100119;-81
2021/12/08 05:36:15;;;;;;;71.00;29.20;;;;;;;0.43;71.46;99664.72;6205961;22;97467;-81
2021/12/08 05:38:41;;;;;;;68.93;29.37;;;;;;;0.41;70.86;99663.03;6231480;22;97322;-81
2021/12/08 05:41:11;;;;;;;67.03;27.43;;;;;;;0.43;70.32;99664.72;6181136;22;99009;-82
2021/12/08 05:43:37;;;;;;;65.57;28.67;;;;;;;0.41;70.26;99660.44;6205983;22;99783;-81
2021/12/08 05:46:03;;;;;;;65.77;26.43;;;;;;;0.45;70.71;99662.97;6184886;22;97222;-81
2021/12/08 05:48:32;;;;;;;59.77;26.97;;;;;;;0.49;70.96;99652.66;6210628;22;96889;-80
2021/12/08 05:51:06;;;;;;;65.13;27.97;;;;;;;0.52;70.55;99655.22;6182682;22;101076;-81
2021/12/08 05:53:33;;;;;;;70.63;29.53;;;;;;;0.54;69.97;99656.94;6181255;22;99941;-81
2021/12/08 05:56:00;;;;;;;61.13;29.27;;;;;;;0.50;70.37;99654.38;6234107;22;96531;-81
2021/12/08 05:58:26;;;;;;;61.57;28.63;;;;;;;0.49;69.74;99652.66;6234326;22;97176;-81
2021/12/08 06:01:00;;;;;;;62.10;29.77;;;;;;;0.55;69.83;99644.88;6208721;22;100029;-81
2021/12/08 06:03:26;;;;;;;64.03;28.40;;;;;;;0.47;69.88;99639.75;6209558;22;100944;-81
2021/12/08 06:05:54;;;;;;;67.83;30.17;;;;;;;0.58;69.84;99634.53;6215495;22;96471;-81
2021/12/08 06:08:20;;;;;;;57.63;27.43;;;;;;;0.47;70.01;99639.75;6191230;22;96200;-81
2021/12/08 06:10:47;;;;;;;59.03;27.03;;;;;;;0.49;69.59;99650.06;6213791;22;99732;-81
2021/12/08 06:13:15;;;;;;;56.40;27.47;;;;;;;0.48;70.13;99651.78;6186741;22;100473;-81
2021/12/08 06:15:43;;;;;;;56.53;26.57;;;;;;;0.48;69.61;99656.09;6186419;22;96608;-81
2021/12/08 06:18:09;;;;;;;58.80;27.47;;;;;;;0.53;69.78;99646.63;6215802;22;96449;-81
2021/12/08 06:20:35;;;;;;;54.93;26.60;;;;;;;0.49;69.57;99640.59;6213904;22;96995;-82
2021/12/08 06:23:03;;;;;;;53.97;26.57;;;;;;;0.52;69.75;99642.31;6212597;22;96792;-81
2021/12/08 06:25:28;;;;;;;51.33;27.27;;;;;;;0.51;69.65;99641.44;6233606;22;96572;-82
2021/12/08 06:27:55;;;;;;;56.27;26.50;;;;;;;0.47;69.61;99644.03;6181243;22;96790;-81
2021/12/08 06:30:24;;;;;;;57.57;26.37;;;;;;;0.49;69.55;99640.59;6182784;22;97496;-81
2021/12/08 06:32:50;;;;;;;57.97;28.03;;;;;;;0.55;69.51;99645.72;6207591;22;99143;-81
2021/12/08 06:35:21;;;;;;;55.77;28.63;;;;;;;0.51;69.44;99653.50;6210493;22;96988;-81
2021/12/08 06:37:48;;;;;;;55.50;26.93;;;;;;;0.49;69.39;99656.06;6211320;22;96628;-81
2021/12/08 06:40:43;;;;;;;51.83;27.40;;;;;;;0.55;69.39;99652.63;6193032;22;99123;-81
2021/12/08 06:43:12;;;;;;;57.23;28.00;;;;;;;0.52;69.42;99662.97;6242654;22;96973;-81
2021/12/08 06:45:41;;;;;;;57.57;28.40;;;;;;;0.52;69.06;99665.53;6184332;22;96848;-81
2021/12/08 06:48:13;;;;;;;57.60;28.20;;;;;;;0.44;69.41;99663.00;6227620;22;96647;-80
2021/12/08 06:50:49;;;;;;;54.43;27.73;;;;;;;0.44;68.92;99663.00;6201989;22;100181;-80
2021/12/08 06:53:15;;;;;;;55.87;26.90;;;;;;;0.50;69.05;99652.66;6203030;22;100642;-81
2021/12/08 06:55:50;;;;;;;57.47;29.00;;;;;;;0.52;68.85;99658.66;6212966;22;96911;-81
2021/12/08 06:58:20;;;;;;;59.73;28.40;;;;;;;0.42;68.66;99663.00;6184858;22;96964;-80
2021/12/08 07:04:30;;;;;;;63.53;31.92;;;;;;;0.26;69.64;99668.22;6117517;23;99553;-81
2021/12/08 07:07:16;;;;;;;59.43;29.40;;;;;;;0.30;68.90;99662.19;6069657;23;96475;-81
2021/12/08 07:09:54;;;;;;;60.37;28.90;;;;;;;0.26;69.00;99669.06;6192987;22;96461;-80
2021/12/08 07:12:29;;;;;;;58.90;28.17;;;;;;;0.25;69.75;99663.91;6228276;22;101311;-80
2021/12/08 07:15:09;;;;;;;66.73;30.33;;;;;;;0.27;69.72;99662.19;6205376;22;97273;-81
2021/12/08 07:17:36;;;;;;;65.33;30.97;;;;;;;0.22;70.19;99673.38;6183672;22;96524;-80
2021/12/08 07:20:17;;;;;;;69.00;31.50;;;;;;;0.27;69.62;99673.38;6209702;22;96708;-80
2021/12/08 07:22:49;;;;;;;65.77;30.83;;;;;;;0.26;69.66;99669.06;6180813;22;100369;-81
2021/12/08 07:25:18;;;;;;;67.57;31.50;;;;;;;0.32;69.46;99668.19;6176822;22;99417;-82
2021/12/08 07:27:44;;;;;;;67.67;32.50;;;;;;;0.30;69.54;99673.38;6176458;22;96643;-80
2021/12/08 07:30:19;;;;;;;68.97;33.67;;;;;;;0.40;69.40;99669.03;6201332;22;96898;-81
2021/12/08 07:32:45;;;;;;;67.47;33.20;;;;;;;0.31;69.32;99667.34;6176063;22;100771;-81
2021/12/08 07:35:16;;;;;;;65.27;32.37;;;;;;;0.29;69.10;99673.34;6177565;22;99666;-81
2021/12/08 07:37:42;;;;;;;63.43;30.80;;;;;;;0.25;68.58;99663.91;6203510;22;96479;-82
2021/12/08 07:40:14;;;;;;;60.60;30.03;;;;;;;0.16;69.40;99654.47;6182198;22;96755;-81
2021/12/08 07:42:48;;;;;;;65.30;31.20;;;;;;;0.19;69.13;99660.47;6208361;22;100500;-81
2021/12/08 07:45:18;;;;;;;69.70;32.23;;;;;;;0.24;68.80;99657.91;6182736;22;99225;-81
2021/12/08 07:47:45;;;;;;;60.17;29.60;;;;;;;0.25;68.89;99663.91;6201216;22;96591;-80
2021/12/08 07:50:19;;;;;;;61.80;29.63;;;;;;;0.20;68.80;99664.81;6200529;22;96960;-81
2021/12/08 07:52:47;;;;;;;58.73;27.53;;;;;;;0.21;68.81;99668.25;6229848;22;97359;-81
2021/12/08 07:55:18;;;;;;;60.80;29.27;;;;;;;0.25;68.42;99666.50;6225147;22;97029;-78
2021/12/08 07:57:44;;;;;;;62.03;29.57;;;;;;;0.17;68.70;99664.78;6183834;22;97194;-78
2021/12/08 08:00:15;;;;;;;64.93;28.80;;;;;;;0.09;68.72;99663.97;6173416;22;97306;-78
2021/12/08 08:02:42;;;;;;;62.67;28.60;;;;;;;0.14;68.68;99664.78;6184816;22;98039;-78
2021/12/08 08:05:09;;;;;;;59.93;26.67;;;;;;;0.20;68.34;99656.16;6182905;22;101071;-78
2021/12/08 08:07:36;;;;;;;50.57;24.53;;;;;;;0.24;67.98;99660.47;6159306;22;97047;-78
2021/12/08 08:10:12;;;;;;;50.87;24.57;;;;;;;0.29;67.78;99661.34;6185746;22;96727;-78
2021/12/08 08:12:38;;;;;;;44.20;22.70;;;;;;;0.32;68.00;99657.84;6186236;22;101013;-78
2021/12/08 08:15:08;;;;;;;49.37;24.47;;;;;;;0.33;67.44;99654.44;6184404;22;101062;-78
2021/12/08 08:17:39;;;;;;;45.93;22.37;;;;;;;0.35;67.37;99650.09;6180274;22;97396;-78
2021/12/08 08:20:24;;;;;;;48.15;23.50;;;;;;;0.34;66.95;99654.41;6185890;22;97382;-78
2021/12/08 08:22:50;;;;;;;40.87;20.67;;;;;;;0.32;66.60;99650.13;6185060;22;97955;-77
2021/12/08 08:25:18;;;;;;;43.33;20.80;;;;;;;0.33;66.98;99646.69;6188062;22;97874;-78
2021/12/08 08:27:44;;;;;;;41.37;19.47;;;;;;;0.34;66.51;99657.00;6165592;22;97145;-78
2021/12/08 08:30:12;;;;;;;39.73;19.53;;;;;;;0.28;65.88;99658.75;6168107;22;96924;-78
2021/12/08 08:32:39;;;;;;;37.87;19.17;;;;;;;0.33;66.29;99655.28;6192635;22;101744;-78
2021/12/08 08:35:15;;;;;;;37.40;18.03;;;;;;;0.24;66.10;99659.63;6194950;22;97330;-78
2021/12/08 08:37:41;;;;;;;35.63;17.67;;;;;;;0.29;66.41;99658.75;6191013;22;97067;-77
2021/12/08 08:40:16;;;;;;;34.80;18.37;;;;;;;0.26;65.84;99663.91;6191314;22;97121;-78
2021/12/08 08:42:44;;;;;;;38.30;18.53;;;;;;;0.23;65.69;99658.75;6187900;22;100217;-78
2021/12/08 08:45:13;;;;;;;38.63;18.27;;;;;;;0.24;66.05;99659.63;6213459;22;97490;-78
2021/12/08 08:47:52;;;;;;;38.53;19.10;;;;;;;0.25;65.86;99669.94;6185986;22;96973;-78
2021/12/08 08:50:26;;;;;;;42.30;19.90;;;;;;;0.30;66.28;99667.34;6188393;22;96722;-78
2021/12/08 08:52:54;;;;;;;41.93;18.87;;;;;;;0.31;66.35;99658.72;6160434;22;101228;-78
2021/12/08 08:55:27;;;;;;;38.70;19.43;;;;;;;0.29;66.43;99661.34;6160327;22;101581;-78
2021/12/08 08:57:55;;;;;;;37.80;19.17;;;;;;;0.26;66.47;99658.72;6160233;22;96639;-78
2021/12/08 09:00:31;;;;;;;43.70;19.80;;;;;;;0.30;66.98;99663.03;6161781;22;97307;-78
2021/12/08 09:03:01;;;;;;;40.33;20.07;;;;;;;0.32;66.04;99661.31;6154395;22;101337;-77
2021/12/08 09:05:35;;;;;;;45.67;21.47;;;;;;;0.32;66.51;99674.25;6158753;22;101806;-78
2021/12/08 09:08:03;;;;;;;46.27;21.23;;;;;;;0.30;66.33;99670.78;6185016;22;97093;-78
2021/12/08 09:10:51;;;;;;;37.37;19.63;;;;;;;0.32;67.00;99658.75;6187146;22;97074;-78
2021/12/08 09:13:25;;;;;;;46.67;21.37;;;;;;;0.34;67.03;99658.72;6213918;22;97406;-78
2021/12/08 09:16:01;;;;;;;43.63;22.40;;;;;;;0.35;66.99;99652.69;6159925;22;101241;-77
2021/12/08 09:18:46;;;;;;;44.03;21.77;;;;;;;0.41;66.75;99640.63;6185132;22;96974;-78
2021/12/08 09:21:34;;;;;;;49.17;22.20;;;;;;;0.36;67.22;99644.09;6186358;22;97192;-78
2021/12/08 09:24:21;;;;;;;46.00;23.50;;;;;;;0.37;67.23;99638.06;6209925;22;101468;-78
2021/12/08 09:26:54;;;;;;;49.03;23.20;;;;;;;0.39;67.02;99628.59;6211113;22;98516;-78
2021/12/08 09:29:26;;;;;;;47.37;22.53;;;;;;;0.41;66.27;99617.38;6161339;22;97089;-78
2021/12/08 09:31:56;;;;;;;;;;;;;;;0.34;66.97;99607.09;6161363;22;97171;-77
2021/12/08 09:34:36;;;;;;;49.65;25.60;;;;;;;0.39;66.93;99601.03;6211807;22;97841;-78
2021/12/08 09:37:08;;;;;;;44.70;22.57;;;;;;;0.31;66.99;99589.88;6174896;22;101525;-80
2021/12/08 09:39:41;;;;;;;53.00;24.15;;;;;;;0.30;66.49;99583.00;6189977;22;96498;-81
2021/12/08 09:42:48;;;;;;;52.00;24.03;;;;;;;0.15;66.92;99589.09;6213890;22;97078;-81
2021/12/08 09:45:28;;;;;;;53.27;24.53;;;;;;;0.19;67.17;99587.34;6228374;22;99833;-81
2021/12/08 09:47:55;;;;;;;44.73;22.97;;;;;;;0.20;67.01;99589.06;6203761;22;98719;-80
2021/12/08 09:50:21;;;;;;;49.17;24.77;;;;;;;0.23;67.95;99583.88;6180338;22;96959;-81
2021/12/08 09:52:49;;;;;;;48.60;23.03;;;;;;;0.25;67.83;99589.06;6181508;22;96922;-80
2021/12/08 09:55:17;;;;;;;55.10;25.07;;;;;;;0.32;67.49;99575.25;6188850;22;98981;-81
2021/12/08 09:57:44;;;;;;;44.90;24.70;;;;;;;0.31;67.68;99566.63;6208942;22;99333;-81
2021/12/08 10:00:22;;;;;;;55.67;25.40;;;;;;;0.36;66.98;99585.56;6238155;22;95826;-80
2021/12/08 10:02:48;;;;;;;48.50;23.63;;;;;;;0.30;67.22;99575.25;6210674;22;96563;-81
2021/12/08 10:05:15;;;;;;;50.90;25.20;;;;;;;0.27;67.34;99582.16;6189946;22;99278;-81
2021/12/08 10:07:43;;;;;;;50.37;24.93;;;;;;;0.33;67.80;99569.22;6189059;22;99549;-80
2021/12/08 10:10:12;;;;;;;51.97;25.30;;;;;;;0.26;67.21;99555.47;6204281;22;97278;-80
2021/12/08 10:12:38;;;;;;;53.80;25.77;;;;;;;0.27;67.78;99557.22;6233625;22;96722;-80
2021/12/08 10:15:06;;;;;;;47.57;23.57;;;;;;;0.24;67.53;99549.47;6210503;22;99576;-81
2021/12/08 10:17:33;;;;;;;51.27;25.23;;;;;;;0.19;67.47;99548.63;6212487;22;99026;-81
2021/12/08 10:20:17;;;;;;;53.47;25.17;;;;;;;0.19;67.38;99562.38;6208937;22;96537;-80
2021/12/08 10:22:46;;;;;;;52.00;23.70;;;;;;;0.16;67.91;99551.22;6200046;22;96596;-78
2021/12/08 10:25:14;;;;;;;54.97;25.40;;;;;;;0.19;67.78;99569.28;6205042;22;101065;-80
2021/12/08 10:28:03;;;;;;;57.03;26.17;;;;;;;0.21;67.39;99546.91;6235933;22;99090;-81
2021/12/08 10:30:28;;;;;;;50.63;25.03;;;;;;;0.27;67.75;99552.03;6210958;22;96619;-80
2021/12/08 10:32:54;;;;;;;53.43;25.63;;;;;;;0.29;68.14;99570.97;6211265;22;96731;-81
2021/12/08 10:35:43;;;;;;;57.27;27.30;;;;;;;0.26;67.39;99560.63;6239201;22;96611;-81
2021/12/08 10:38:11;;;;;;;54.73;27.83;;;;;;;0.27;68.23;99562.38;6213097;22;97431;-81
2021/12/08 10:40:37;;;;;;;60.27;28.03;;;;;;;0.23;67.59;99552.91;6237974;22;96305;-80
2021/12/08 10:43:20;;;;;;;57.77;28.57;;;;;;;0.21;67.92;99560.66;6187246;22;95972;-80
2021/12/08 10:45:59;;;;;;;62.20;29.50;;;;;;;0.26;67.04;99557.19;6211584;22;98847;-81
2021/12/08 10:48:33;;;;;;;58.63;28.43;;;;;;;0.14;67.91;99561.53;6240430;22;96391;-81
2021/12/08 10:56:37;;;;;;;59.33;27.43;;;;;;;0.21;68.27;99562.41;6236430;22;96626;-81
2021/12/08 10:59:03;;;;;;;61.07;29.43;;;;;;;0.22;67.63;99566.69;6213403;22;96363;-81
2021/12/08 11:01:29;;;;;;;61.83;30.27;;;;;;;0.20;67.43;99564.13;6210392;22;96206;-80
2021/12/08 11:04:07;;;;;;;60.43;28.97;;;;;;;0.07;67.31;99566.75;6184308;22;96575;-82
2021/12/08 11:06:35;;;;;;;65.50;29.77;;;;;;;0.11;67.52;99555.53;6209389;22;101155;-81
2021/12/08 11:09:03;;;;;;;67.83;31.20;;;;;;;0.21;66.64;99565.84;6214370;22;99873;-81
2021/12/08 11:11:35;;;;;;;71.40;33.40;;;;;;;0.01;67.47;99562.47;6189605;22;96397;-82
2021/12/08 11:14:05;;;;;;;61.25;27.95;;;;;;;-0.10;68.19;99566.81;6214202;22;95960;-81
2021/12/08 11:16:36;;;;;;;69.17;29.83;;;;;;;-0.09;67.74;99546.16;6184146;22;99748;-81
2021/12/08 11:19:08;;;;;;;62.95;28.02;;;;;;;-0.07;67.35;99541.84;6208512;22;100331;-81
2021/12/08 11:22:03;;;;;;;72.33;29.70;;;;;;;0.03;67.46;99534.06;6180007;22;97374;-81
2021/12/08 11:24:44;;;;;;;63.97;29.17;;;;;;;0.10;67.89;99534.03;6200643;22;96624;-80
2021/12/08 11:27:11;;;;;;;63.85;30.10;;;;;;;0.15;67.99;99524.56;6195457;22;97810;-80
2021/12/08 11:29:42;;;;;;;60.43;29.87;;;;;;;0.19;67.69;99522.81;6186940;22;101189;-79
2021/12/08 11:32:10;;;;;;;59.60;27.80;;;;;;;0.15;67.69;99521.97;6186631;22;96646;-79
2021/12/08 11:38:41;;;;;;;60.23;27.90;;;;;;;0.13;67.92;99507.38;6215733;22;96911;-79
2021/12/08 11:48:23;;;;;;;57.57;27.63;;;;;;;0.03;67.75;99491.06;6215815;22;96417;-79
2021/12/08 11:51:08;;;;;;;57.43;28.60;;;;;;;0.09;67.57;99490.16;6162973;22;101366;-79
2021/12/08 11:53:38;;;;;;;56.97;27.47;;;;;;;0.14;67.93;99501.31;6163429;22;101238;-79
2021/12/08 11:56:05;;;;;;;57.07;26.77;;;;;;;0.14;68.38;99493.59;6204533;22;96560;-81
2021/12/08 11:58:30;;;;;;;59.43;27.87;;;;;;;0.10;67.96;99485.00;6206263;22;96764;-81
2021/12/08 12:00:56;;;;;;;61.13;30.33;;;;;;;0.19;67.48;99484.09;6207933;22;99508;-80
2021/12/08 12:03:22;;;;;;;58.50;26.93;;;;;;;0.10;68.16;99489.31;6214548;22;99121;-81
2021/12/08 12:05:48;;;;;;;56.60;27.20;;;;;;;0.16;67.85;99499.59;6216018;22;95851;-82
2021/12/08 12:08:20;;;;;;;62.50;27.23;;;;;;;0.16;67.58;99484.13;6190663;22;98007;-81
2021/12/08 12:19:41;;;;;;;58.83;27.93;;;;;;;0.12;67.90;99483.28;6237205;22;99327;-82
2021/12/08 12:25:12;;;;;;;52.97;26.27;;;;;;;0.08;68.29;99478.13;6262551;22;98373;-82
2021/12/08 12:36:01;;;;;;;51.80;23.43;;;;;;;0.05;68.12;99458.34;6225490;22;98337;-80
2021/12/08 12:38:35;;;;;;;61.87;26.07;;;;;;;0.10;67.18;99446.28;6164632;22;96690;-79
2021/12/08 12:41:02;;;;;;;55.03;26.67;;;;;;;0.09;67.84;99456.59;6137308;22;96851;-79
2021/12/08 12:43:30;;;;;;;52.63;24.47;;;;;;;0.02;68.29;99450.63;6187502;22;97651;-79
2021/12/08 12:46:26;;;;;;;49.53;24.20;;;;;;;0.01;68.13;99441.19;6161275;22;101165;-80
2021/12/08 12:48:52;;;;;;;49.60;24.50;;;;;;;0.02;68.34;99448.03;6123538;22;97970;-80
2021/12/08 12:51:21;;;;;;;51.93;24.20;;;;;;;-0.01;67.85;99450.66;6138441;22;96762;-79
2021/12/08 12:56:31;;;;;;;55.43;24.80;;;;;;;-0.03;68.34;99448.09;6187853;22;99823;-82
2021/12/08 12:58:57;;;;;;;47.40;24.67;;;;;;;-0.01;68.05;99440.31;6239313;22;96552;-81